Time;durP1;ratioP1;P1;durP2;ratioP2;P2;SDS_P1;SDS_P2;PMS_P1;PMS_P2;Temp;Humidity;BMP_temperature;BMP_pressure;BME280_temperature;BME280_humidity;BME280_pressure;Samples;Min_cycle;Max_cycle;Signal;HPM_P1;HPM_P2
2022/08/15 00:01:14;;;;;;;6.77;3.60;;;;;;;;;;4967397;28;20145;-60
2022/08/15 00:03:41;;;;;;;6.70;3.95;;;;;;;;;;4958716;28;20377;-59
2022/08/15 00:06:09;;;;;;;5.95;3.65;;;;;;;;;;4964598;28;20054;-62
2022/08/15 00:08:40;;;;;;;5.65;3.40;;;;;;;;;;4959058;28;20055;-62
2022/08/15 00:11:10;;;;;;;7.07;3.78;;;;;;;;;;4967094;28;20063;-62
2022/08/15 00:13:37;;;;;;;6.07;3.30;;;;;;;;;;4960340;28;20145;-59
2022/08/15 00:16:05;;;;;;;7.88;3.95;;;;;;;;;;4967601;28;20118;-60
2022/08/15 00:18:32;;;;;;;7.03;4.03;;;;;;;;;;4966876;28;20058;-59
2022/08/15 00:20:59;;;;;;;6.33;3.80;;;;;;;;;;4959373;28;20047;-59
2022/08/15 00:23:29;;;;;;;6.55;4.00;;;;;;;;;;4967211;28;20065;-61
2022/08/15 00:25:57;;;;;;;6.55;3.75;;;;;;;;;;4959264;28;20067;-60
2022/08/15 00:28:24;;;;;;;;;;;;;;;;;;4968107;28;20065;-61
2022/08/15 00:30:53;;;;;;;6.50;3.60;;;;;;;;;;4959677;28;19933;-61
2022/08/15 00:33:20;;;;;;;5.72;3.80;;;;;;;;;;4967600;28;20062;-59
2022/08/15 00:35:48;;;;;;;6.37;3.63;;;;;;;;;;4952434;28;20129;-56
2022/08/15 00:38:16;;;;;;;6.50;3.55;;;;;;;;;;4956506;28;20366;-59
2022/08/15 00:43:27;;;;;;;6.72;3.60;;;;;;;;;;4960686;28;20220;-60
2022/08/15 00:45:55;;;;;;;6.22;3.55;;;;;;;;;;4967328;28;20058;-63
2022/08/15 00:51:09;;;;;;;6.20;3.60;;;;;;;;;;4967616;28;20089;-58
2022/08/15 00:53:36;;;;;;;5.93;3.33;;;;;;;;;;4958785;28;20112;-58
2022/08/15 00:56:07;;;;;;;6.28;3.80;;;;;;;;;;4965986;28;20066;-58
2022/08/15 00:58:34;;;;;;;7.60;3.92;;;;;;;;;;4959163;28;20054;-59
2022/08/15 01:01:04;;;;;;;7.05;3.80;;;;;;;;;;4965202;28;20065;-55
2022/08/15 01:03:34;;;;;;;6.32;3.80;;;;;;;;;;4963539;28;20062;-58
2022/08/15 01:06:01;;;;;;;7.00;3.58;;;;;;;;;;4961199;28;20054;-59
2022/08/15 01:08:29;;;;;;;6.33;3.77;;;;;;;;;;4963790;28;20097;-57
2022/08/15 01:10:56;;;;;;;6.82;3.60;;;;;;;;;;4959230;28;20480;-60
2022/08/15 01:13:24;;;;;;;5.68;3.63;;;;;;;;;;4966942;28;20077;-60
2022/08/15 01:15:50;;;;;;;7.57;4.03;;;;;;;;;;4958535;28;20121;-61
2022/08/15 01:18:19;;;;;;;5.57;3.45;;;;;;;;;;4966797;28;20060;-62
2022/08/15 01:20:46;;;;;;;6.10;3.58;;;;;;;;;;4958923;28;20069;-61
2022/08/15 01:23:16;;;;;;;5.97;3.50;;;;;;;;;;4965471;28;20101;-62
2022/08/15 01:25:45;;;;;;;7.03;3.88;;;;;;;;;;4966136;28;20047;-62
2022/08/15 01:28:14;;;;;;;6.18;3.53;;;;;;;;;;4958231;28;20125;-62
2022/08/15 01:30:42;;;;;;;6.57;3.70;;;;;;;;;;4966725;28;20105;-59
2022/08/15 01:33:09;;;;;;;6.18;3.50;;;;;;;;;;4960250;28;20054;-60
2022/08/15 01:35:36;;;;;;;6.07;3.80;;;;;;;;;;4967490;28;20062;-59
2022/08/15 01:38:03;;;;;;;5.30;3.63;;;;;;;;;;4957138;28;20174;-61
2022/08/15 01:40:31;;;;;;;5.57;3.20;;;;;;;;;;4966646;28;20117;-61
2022/08/15 01:43:01;;;;;;;7.15;3.70;;;;;;;;;;4962696;28;20063;-60
2022/08/15 01:45:29;;;;;;;7.15;3.70;;;;;;;;;;4979146;28;20109;-58
2022/08/15 01:47:58;;;;;;;6.95;3.75;;;;;;;;;;4966093;28;20058;-63
2022/08/15 01:50:28;;;;;;;5.72;3.42;;;;;;;;;;4959162;28;20097;-62
2022/08/15 01:52:57;;;;;;;5.97;3.83;;;;;;;;;;4965286;28;20059;-63
2022/08/15 01:55:27;;;;;;;6.47;3.60;;;;;;;;;;4958380;28;20055;-61
2022/08/15 01:57:53;;;;;;;8.15;3.88;;;;;;;;;;4964967;28;20058;-60
2022/08/15 02:00:22;;;;;;;7.53;3.78;;;;;;;;;;4957348;28;20063;-62
2022/08/15 02:02:48;;;;;;;6.93;3.67;;;;;;;;;;4966393;28;20050;-62
2022/08/15 02:05:15;;;;;;;6.85;3.47;;;;;;;;;;4970696;28;20137;-59
2022/08/15 02:07:42;;;;;;;8.63;3.40;;;;;;;;;;4966536;28;20051;-58
2022/08/15 02:10:10;;;;;;;6.07;3.80;;;;;;;;;;4970779;28;20070;-57
2022/08/15 02:12:40;;;;;;;9.13;3.80;;;;;;;;;;4965474;28;20085;-63
2022/08/15 02:15:12;;;;;;;7.07;3.83;;;;;;;;;;5003023;28;20062;-59
2022/08/15 02:17:40;;;;;;;5.43;3.53;;;;;;;;;;4995252;28;20055;-62
2022/08/15 02:20:06;;;;;;;;;;;;;;;;;;4970895;28;20145;-62
2022/08/15 02:22:33;;;;;;;5.68;3.33;;;;;;;;;;4981670;28;19934;-64
2022/08/15 02:25:00;;;;;;;6.75;3.50;;;;;;;;;;4986419;28;20055;-62
2022/08/15 02:27:28;;;;;;;7.27;3.67;;;;;;;;;;4970372;28;20055;-57
2022/08/15 02:29:54;;;;;;;6.35;3.78;;;;;;;;;;4964825;28;20066;-56
2022/08/15 02:32:22;;;;;;;6.40;3.63;;;;;;;;;;4968827;28;20050;-60
2022/08/15 02:34:50;;;;;;;6.47;4.03;;;;;;;;;;4964822;28;20065;-62
2022/08/15 02:37:18;;;;;;;6.88;4.30;;;;;;;;;;4970514;28;20219;-59
2022/08/15 02:39:45;;;;;;;6.35;3.92;;;;;;;;;;4964089;28;20114;-58
2022/08/15 02:42:14;;;;;;;6.82;3.95;;;;;;;;;;4970861;28;20089;-59
2022/08/15 02:44:41;;;;;;;8.05;4.00;;;;;;;;;;5000154;28;20065;-58
2022/08/15 02:47:08;;;;;;;10.68;4.15;;;;;;;;;;4998970;28;20051;-60
2022/08/15 02:49:36;;;;;;;5.85;3.60;;;;;;;;;;4986293;28;20047;-60
2022/08/15 02:52:07;;;;;;;8.43;4.00;;;;;;;;;;4967696;28;20125;-57
2022/08/15 02:54:35;;;;;;;8.35;3.90;;;;;;;;;;5004749;28;20054;-57
2022/08/15 02:57:02;;;;;;;6.83;4.07;;;;;;;;;;4960723;28;20105;-57
2022/08/15 02:59:30;;;;;;;6.35;3.70;;;;;;;;;;4983108;28;20051;-56
2022/08/15 03:01:57;;;;;;;6.28;3.65;;;;;;;;;;4954315;28;20125;-57
2022/08/15 03:04:24;;;;;;;8.38;4.13;;;;;;;;;;4986248;28;20054;-59
2022/08/15 03:06:53;;;;;;;7.03;3.95;;;;;;;;;;4968268;28;20046;-63
2022/08/15 03:09:22;;;;;;;7.47;4.45;;;;;;;;;;4985287;28;20065;-62
2022/08/15 03:11:52;;;;;;;6.93;4.15;;;;;;;;;;4970907;28;20065;-62
2022/08/15 03:14:20;;;;;;;6.57;3.92;;;;;;;;;;4965147;28;20070;-59
2022/08/15 03:16:47;;;;;;;6.95;4.07;;;;;;;;;;4970819;28;20061;-59
2022/08/15 03:19:16;;;;;;;7.18;4.05;;;;;;;;;;4964491;28;20047;-63
2022/08/15 03:21:42;;;;;;;9.88;3.90;;;;;;;;;;4970018;28;20146;-62
2022/08/15 03:24:09;;;;;;;7.20;4.18;;;;;;;;;;4964473;28;20043;-62
2022/08/15 03:26:37;;;;;;;8.25;4.03;;;;;;;;;;4970543;28;20047;-63
2022/08/15 03:29:05;;;;;;;11.77;4.22;;;;;;;;;;4966790;28;20106;-61
2022/08/15 03:31:31;;;;;;;8.63;4.40;;;;;;;;;;4966845;28;20046;-59
2022/08/15 03:33:58;;;;;;;7.68;3.70;;;;;;;;;;4970369;28;20054;-60
2022/08/15 03:36:24;;;;;;;8.50;4.32;;;;;;;;;;4964746;28;20043;-59
2022/08/15 03:38:52;;;;;;;8.35;3.88;;;;;;;;;;4970277;28;20082;-61
2022/08/15 03:41:18;;;;;;;7.30;4.05;;;;;;;;;;4964051;28;20165;-60
2022/08/15 03:43:46;;;;;;;8.95;4.32;;;;;;;;;;5003240;28;20074;-62
2022/08/15 03:46:16;;;;;;;8.05;4.07;;;;;;;;;;4965634;28;20094;-58
2022/08/15 03:48:47;;;;;;;7.20;4.00;;;;;;;;;;4984693;28;20064;-61
2022/08/15 03:51:14;;;;;;;7.22;3.90;;;;;;;;;;4968910;28;20141;-61
2022/08/15 03:53:43;;;;;;;8.43;4.50;;;;;;;;;;4963172;28;20055;-57
2022/08/15 03:56:10;;;;;;;8.27;4.45;;;;;;;;;;4968978;28;20058;-60
2022/08/15 03:58:38;;;;;;;6.97;4.05;;;;;;;;;;4962884;28;20086;-59
2022/08/15 04:01:09;;;;;;;6.80;4.03;;;;;;;;;;4960974;28;20102;-61
2022/08/15 04:03:35;;;;;;;7.32;4.03;;;;;;;;;;4995945;28;20058;-60
2022/08/15 04:06:06;;;;;;;6.75;3.92;;;;;;;;;;4967588;28;20077;-58
2022/08/15 04:08:33;;;;;;;8.45;4.65;;;;;;;;;;4963120;28;20058;-59
2022/08/15 04:11:01;;;;;;;6.43;4.03;;;;;;;;;;5001675;28;20142;-59
2022/08/15 04:13:28;;;;;;;7.75;4.45;;;;;;;;;;4969008;28;20059;-59
2022/08/15 04:15:56;;;;;;;7.28;3.95;;;;;;;;;;4979907;28;20055;-62
2022/08/15 04:18:24;;;;;;;;;;;;;;;;;;4967582;28;20051;-61
2022/08/15 04:20:52;;;;;;;8.57;4.18;;;;;;;;;;4962726;28;19926;-62
2022/08/15 04:23:18;;;;;;;;;;;;;;;;;;4969843;28;20046;-63
2022/08/15 04:25:45;;;;;;;8.18;4.38;;;;;;;;;;4962355;28;19980;-62
2022/08/15 04:28:13;;;;;;;7.25;3.92;;;;;;;;;;4970061;28;20058;-63
2022/08/15 04:30:41;;;;;;;6.45;3.78;;;;;;;;;;4964116;28;20202;-59
2022/08/15 04:33:10;;;;;;;7.38;3.85;;;;;;;;;;5000227;28;20055;-62
2022/08/15 04:35:37;;;;;;;7.40;4.43;;;;;;;;;;4969106;28;20057;-59
2022/08/15 04:38:05;;;;;;;11.10;4.55;;;;;;;;;;4963805;28;20051;-61
2022/08/15 04:40:32;;;;;;;;;;;;;;;;;;4970493;28;20093;-61
2022/08/15 04:42:59;;;;;;;7.78;4.30;;;;;;;;;;4963782;28;19929;-62
2022/08/15 04:45:26;;;;;;;8.15;4.43;;;;;;;;;;4968467;28;20065;-60
2022/08/15 04:47:52;;;;;;;7.65;4.53;;;;;;;;;;4963352;28;20053;-59
2022/08/15 04:50:19;;;;;;;9.35;4.90;;;;;;;;;;5001663;28;20069;-60
2022/08/15 04:52:47;;;;;;;7.78;4.80;;;;;;;;;;4967635;28;20058;-60
2022/08/15 04:55:15;;;;;;;11.93;7.40;;;;;;;;;;4964203;28;20086;-61
2022/08/15 04:57:42;;;;;;;8.35;4.25;;;;;;;;;;4961215;28;20054;-59
2022/08/15 05:00:10;;;;;;;7.15;4.07;;;;;;;;;;4959368;28;20058;-61
2022/08/15 05:02:37;;;;;;;8.20;4.60;;;;;;;;;;4963637;28;20057;-61
2022/08/15 05:05:04;;;;;;;6.78;4.35;;;;;;;;;;4988887;28;20050;-62
2022/08/15 05:07:30;;;;;;;7.85;4.53;;;;;;;;;;4965581;28;20125;-62
2022/08/15 05:09:57;;;;;;;7.18;4.10;;;;;;;;;;4957201;28;20177;-62
2022/08/15 05:12:25;;;;;;;6.55;3.90;;;;;;;;;;4967130;28;20073;-60
2022/08/15 05:14:52;;;;;;;7.20;4.28;;;;;;;;;;4963866;28;20050;-62
2022/08/15 05:17:19;;;;;;;7.72;4.30;;;;;;;;;;4962102;28;20185;-62
2022/08/15 05:19:45;;;;;;;8.90;4.63;;;;;;;;;;4967294;28;20057;-60
2022/08/15 05:22:12;;;;;;;13.40;8.70;;;;;;;;;;4958876;28;20054;-62
2022/08/15 05:24:40;;;;;;;8.98;5.35;;;;;;;;;;4965653;28;20055;-63
2022/08/15 05:27:07;;;;;;;6.82;3.90;;;;;;;;;;4959369;28;20062;-63
2022/08/15 05:29:35;;;;;;;9.30;4.82;;;;;;;;;;4967869;28;20054;-60
2022/08/15 05:32:06;;;;;;;8.95;5.03;;;;;;;;;;4961063;28;20057;-62
2022/08/15 05:34:33;;;;;;;9.85;5.30;;;;;;;;;;4963142;28;20114;-61
2022/08/15 05:37:01;;;;;;;8.55;4.90;;;;;;;;;;4967406;28;20050;-61
2022/08/15 05:39:30;;;;;;;15.57;7.13;;;;;;;;;;4946663;28;20136;-59
2022/08/15 05:42:01;;;;;;;10.65;5.40;;;;;;;;;;4971569;28;20047;-62
2022/08/15 05:44:33;;;;;;;12.52;5.07;;;;;;;;;;4965139;28;20046;-64
2022/08/15 05:47:05;;;;;;;7.18;4.30;;;;;;;;;;4971747;28;20080;-63
2022/08/15 05:49:35;;;;;;;7.30;4.40;;;;;;;;;;4998283;28;20153;-60
2022/08/15 05:52:05;;;;;;;12.43;4.22;;;;;;;;;;4990180;28;20054;-64
2022/08/15 05:54:37;;;;;;;6.90;4.13;;;;;;;;;;4982756;28;20069;-63
2022/08/15 05:57:05;;;;;;;10.52;4.30;;;;;;;;;;4971161;28;20117;-59
2022/08/15 05:59:35;;;;;;;8.88;3.63;;;;;;;;;;4970952;28;20141;-64
2022/08/15 06:02:07;;;;;;;13.85;3.83;;;;;;;;;;4966502;28;20079;-64
2022/08/15 06:04:39;;;;;;;9.55;3.97;;;;;;;;;;4972089;28;20055;-62
2022/08/15 06:07:07;;;;;;;6.18;3.50;;;;;;;;;;4966174;28;20051;-63
2022/08/15 06:09:35;;;;;;;7.43;4.13;;;;;;;;;;4988581;28;20057;-63
2022/08/15 06:12:04;;;;;;;9.57;3.33;;;;;;;;;;4965259;28;20114;-63
2022/08/15 06:14:32;;;;;;;9.20;3.58;;;;;;;;;;4972319;28;20082;-63
2022/08/15 06:17:01;;;;;;;6.65;2.95;;;;;;;;;;4999149;28;20059;-60
2022/08/15 06:19:30;;;;;;;7.00;3.25;;;;;;;;;;4971656;28;20054;-63
2022/08/15 06:22:06;;;;;;;5.90;3.33;;;;;;;;;;4971848;28;20134;-62
2022/08/15 06:24:34;;;;;;;6.78;2.78;;;;;;;;;;4966390;28;20166;-63
2022/08/15 06:27:06;;;;;;;8.30;3.13;;;;;;;;;;4968785;28;20062;-64
2022/08/15 06:29:49;;;;;;;8.30;3.05;;;;;;;;;;4998194;28;20050;-63
2022/08/15 06:32:22;;;;;;;7.00;2.90;;;;;;;;;;4971035;28;20050;-64
2022/08/15 06:34:56;;;;;;;5.53;2.58;;;;;;;;;;4966343;28;20085;-62
2022/08/15 06:37:26;;;;;;;5.10;2.60;;;;;;;;;;4969611;28;20055;-60
2022/08/15 06:39:59;;;;;;;6.93;2.80;;;;;;;;;;4982500;28;20113;-64
2022/08/15 06:42:29;;;;;;;5.00;2.50;;;;;;;;;;4970659;28;20058;-63
2022/08/15 06:44:58;;;;;;;4.55;2.50;;;;;;;;;;4965459;28;20079;-62
2022/08/15 06:47:28;;;;;;;5.25;2.53;;;;;;;;;;4987990;28;20113;-63
2022/08/15 06:49:58;;;;;;;6.85;2.60;;;;;;;;;;4978557;28;20070;-63
2022/08/15 06:52:26;;;;;;;7.88;2.78;;;;;;;;;;4990559;28;20069;-64
2022/08/15 06:54:53;;;;;;;7.23;2.73;;;;;;;;;;4973226;28;20133;-63
2022/08/15 06:57:22;;;;;;;4.03;2.30;;;;;;;;;;4970677;28;20146;-63
2022/08/15 06:59:54;;;;;;;7.53;2.50;;;;;;;;;;4964878;28;20066;-62
2022/08/15 07:02:27;;;;;;;6.78;2.85;;;;;;;;;;4970268;28;20062;-62
2022/08/15 07:05:00;;;;;;;4.80;2.63;;;;;;;;;;4964700;28;20047;-62
2022/08/15 07:07:35;;;;;;;4.57;1.95;;;;;;;;;;4970266;28;20059;-62
2022/08/15 07:10:05;;;;;;;4.72;2.35;;;;;;;;;;4964538;28;20089;-60
2022/08/15 07:12:42;;;;;;;7.53;2.35;;;;;;;;;;4970444;28;20058;-61
2022/08/15 07:15:11;;;;;;;5.93;2.90;;;;;;;;;;4964508;28;20061;-61
2022/08/15 07:17:40;;;;;;;5.13;2.42;;;;;;;;;;4969522;28;20050;-63
2022/08/15 07:20:08;;;;;;;6.45;2.30;;;;;;;;;;4963961;28;20049;-59
2022/08/15 07:22:37;;;;;;;8.48;2.47;;;;;;;;;;4969953;28;20055;-62
2022/08/15 07:25:09;;;;;;;6.05;2.17;;;;;;;;;;4964762;28;20053;-62
2022/08/15 07:27:36;;;;;;;5.47;2.45;;;;;;;;;;4969427;28;20055;-62
2022/08/15 07:30:06;;;;;;;6.45;2.80;;;;;;;;;;4963770;28;20089;-61
2022/08/15 07:32:45;;;;;;;4.35;2.25;;;;;;;;;;4969593;28;20050;-62
2022/08/15 07:35:17;;;;;;;10.05;4.47;;;;;;;;;;4963683;28;20043;-63
2022/08/15 07:37:56;;;;;;;6.18;2.80;;;;;;;;;;4969665;28;20072;-61
2022/08/15 07:40:25;;;;;;;5.45;2.63;;;;;;;;;;4956890;28;20047;-64
2022/08/15 07:42:54;;;;;;;7.65;2.55;;;;;;;;;;5002872;28;20050;-64
2022/08/15 07:45:26;;;;;;;6.80;2.45;;;;;;;;;;4970661;28;20050;-63
2022/08/15 07:47:55;;;;;;;10.23;2.63;;;;;;;;;;4974225;28;20070;-54
2022/08/15 07:50:27;;;;;;;6.55;2.40;;;;;;;;;;4973739;28;20058;-58
2022/08/15 07:52:56;;;;;;;5.60;2.55;;;;;;;;;;4964455;28;20059;-60
2022/08/15 07:55:23;;;;;;;7.05;2.70;;;;;;;;;;4968524;28;20058;-64
2022/08/15 07:58:00;;;;;;;4.15;2.20;;;;;;;;;;4963234;28;20059;-61
2022/08/15 08:00:27;;;;;;;8.57;3.00;;;;;;;;;;4985169;28;20054;-62
2022/08/15 08:02:57;;;;;;;7.60;2.75;;;;;;;;;;4963120;28;20137;-63
2022/08/15 08:05:26;;;;;;;5.20;2.40;;;;;;;;;;4967851;28;20055;-61
2022/08/15 08:07:54;;;;;;;6.07;3.00;;;;;;;;;;4962645;28;20059;-63
2022/08/15 08:10:25;;;;;;;5.10;2.57;;;;;;;;;;4968815;28;20134;-62
2022/08/15 08:13:03;;;;;;;7.68;3.25;;;;;;;;;;4963644;28;20080;-62
2022/08/15 08:15:38;;;;;;;4.38;2.25;;;;;;;;;;4968625;28;20070;-62
2022/08/15 08:18:08;;;;;;;6.65;2.33;;;;;;;;;;4962900;28;20055;-60
2022/08/15 08:20:37;;;;;;;8.27;2.15;;;;;;;;;;4984362;28;20059;-62
2022/08/15 08:23:07;;;;;;;6.65;2.58;;;;;;;;;;4962876;28;20058;-61
2022/08/15 08:25:38;;;;;;;6.60;2.63;;;;;;;;;;4968310;28;20054;-63
2022/08/15 08:28:10;;;;;;;5.63;2.40;;;;;;;;;;4976603;28;20054;-58
2022/08/15 08:30:40;;;;;;;5.38;2.13;;;;;;;;;;5000696;28;20105;-61
2022/08/15 08:33:10;;;;;;;4.90;2.38;;;;;;;;;;4962619;28;20118;-62
2022/08/15 08:35:40;;;;;;;4.22;2.22;;;;;;;;;;4968392;28;20069;-60
2022/08/15 08:38:21;;;;;;;7.57;2.72;;;;;;;;;;4962944;28;20050;-60
2022/08/15 08:43:39;;;;;;;3.72;2.17;;;;;;;;;;4963205;28;20049;-62
2022/08/15 08:46:12;;;;;;;7.18;2.85;;;;;;;;;;4968784;28;20153;-63
2022/08/15 08:48:46;;;;;;;6.70;2.47;;;;;;;;;;4962910;28;20273;-62
2022/08/15 08:51:21;;;;;;;6.53;2.50;;;;;;;;;;4988430;28;20168;-61
2022/08/15 08:53:51;;;;;;;6.07;2.63;;;;;;;;;;4975832;28;20053;-62
2022/08/15 08:56:22;;;;;;;6.78;3.50;;;;;;;;;;4970596;28;20053;-62
2022/08/15 08:58:56;;;;;;;13.82;3.78;;;;;;;;;;4968349;28;20054;-63
2022/08/15 09:01:24;;;;;;;6.18;3.03;;;;;;;;;;4967329;28;20051;-60
2022/08/15 09:03:52;;;;;;;8.15;3.72;;;;;;;;;;4963242;28;20229;-62
2022/08/15 09:06:18;;;;;;;;;;;;;;;;;;4968400;28;20067;-61
2022/08/15 09:08:51;;;;;;;5.18;2.38;;;;;;;;;;4978581;28;19930;-62
2022/08/15 09:11:20;;;;;;;9.48;3.75;;;;;;;;;;4967272;28;20047;-61
2022/08/15 09:13:46;;;;;;;7.18;4.05;;;;;;;;;;4983444;28;20093;-62
2022/08/15 09:16:16;;;;;;;8.23;3.70;;;;;;;;;;4963947;28;20050;-62
2022/08/15 09:18:52;;;;;;;7.53;3.10;;;;;;;;;;4967842;28;20117;-63
2022/08/15 09:21:19;;;;;;;8.60;3.53;;;;;;;;;;4962163;28;20050;-62
2022/08/15 09:23:46;;;;;;;6.20;3.08;;;;;;;;;;4968052;28;20113;-63
2022/08/15 09:26:15;;;;;;;5.13;2.83;;;;;;;;;;4963125;28;20062;-63
2022/08/15 09:28:44;;;;;;;4.65;2.67;;;;;;;;;;4968197;28;20364;-63
2022/08/15 09:31:14;;;;;;;9.13;4.10;;;;;;;;;;4962313;28;20059;-63
2022/08/15 09:33:51;;;;;;;6.88;3.55;;;;;;;;;;4967574;28;20058;-63
2022/08/15 09:36:25;;;;;;;5.47;2.95;;;;;;;;;;4958584;28;20051;-59
2022/08/15 09:38:59;;;;;;;5.68;2.72;;;;;;;;;;4968026;28;20134;-63
2022/08/15 09:41:42;;;;;;;6.38;3.10;;;;;;;;;;4960656;28;20055;-63
2022/08/15 09:44:33;;;;;;;6.32;3.28;;;;;;;;;;4967485;28;20054;-62
2022/08/15 09:47:08;;;;;;;7.95;3.00;;;;;;;;;;4961906;28;20051;-61
2022/08/15 09:49:43;;;;;;;6.90;3.40;;;;;;;;;;4967371;28;20042;-62
2022/08/15 09:52:19;;;;;;;5.78;2.80;;;;;;;;;;4965270;28;20057;-59
2022/08/15 09:54:47;;;;;;;8.95;4.07;;;;;;;;;;4967600;28;20138;-63
2022/08/15 09:57:24;;;;;;;6.75;3.20;;;;;;;;;;4977400;28;20054;-63
2022/08/15 09:59:57;;;;;;;7.78;3.45;;;;;;;;;;4987644;28;20066;-61
2022/08/15 10:02:27;;;;;;;6.43;3.40;;;;;;;;;;4967295;28;20073;-62
2022/08/15 10:05:21;;;;;;;10.45;3.67;;;;;;;;;;4965007;28;20054;-62
2022/08/15 10:07:49;;;;;;;18.00;4.68;;;;;;;;;;4926179;28;20062;-62
2022/08/15 10:10:18;;;;;;;8.38;3.65;;;;;;;;;;4967592;28;20058;-60
2022/08/15 10:13:06;;;;;;;6.82;3.08;;;;;;;;;;4960333;28;20050;-58
2022/08/15 10:15:43;;;;;;;7.00;3.90;;;;;;;;;;4966911;28;20082;-63
2022/08/15 10:18:10;;;;;;;10.65;4.15;;;;;;;;;;4960955;28;20066;-62
2022/08/15 10:21:01;;;;;;;12.27;4.28;;;;;;;;;;4966569;28;20050;-60
2022/08/15 10:23:31;;;;;;;10.38;5.30;;;;;;;;;;4994252;28;20058;-60
2022/08/15 10:26:21;;;;;;;10.75;5.22;;;;;;;;;;5002355;28;20059;-59
2022/08/15 10:29:12;;;;;;;5.95;3.22;;;;;;;;;;4965680;28;20051;-61
2022/08/15 10:31:44;;;;;;;10.05;3.97;;;;;;;;;;4951807;28;20055;-62
2022/08/15 10:34:18;;;;;;;14.13;5.07;;;;;;;;;;4964500;28;20079;-61
2022/08/15 10:37:03;;;;;;;7.30;3.35;;;;;;;;;;4969308;28;20054;-58
2022/08/15 10:39:34;;;;;;;8.10;4.03;;;;;;;;;;4966114;28;20141;-60
2022/08/15 10:42:08;;;;;;;14.35;4.70;;;;;;;;;;4969849;28;20074;-61
2022/08/15 10:44:42;;;;;;;9.15;2.80;;;;;;;;;;4970697;28;20073;-63
2022/08/15 10:47:24;;;;;;;10.00;4.55;;;;;;;;;;4965858;28;20066;-61
2022/08/15 10:49:57;;;;;;;13.02;5.07;;;;;;;;;;4971480;28;20062;-61
2022/08/15 10:52:32;;;;;;;9.88;3.67;;;;;;;;;;4964009;28;20046;-62
2022/08/15 10:55:07;;;;;;;9.65;3.72;;;;;;;;;;4969677;28;20051;-64
2022/08/15 10:57:38;;;;;;;13.10;5.53;;;;;;;;;;4997038;28;20047;-63
2022/08/15 11:00:06;;;;;;;6.60;3.58;;;;;;;;;;5003125;28;20066;-61
2022/08/15 11:02:41;;;;;;;11.85;4.25;;;;;;;;;;4996609;28;20131;-61
2022/08/15 11:05:09;;;;;;;11.63;4.43;;;;;;;;;;4970195;28;20051;-63
2022/08/15 11:07:35;;;;;;;;;;;;;;;;;;4997404;28;20146;-60
2022/08/15 11:10:03;;;;;;;12.73;4.63;;;;;;;;;;4969066;28;19957;-62
2022/08/15 11:12:31;;;;;;;6.85;3.58;;;;;;;;;;4970273;28;20055;-58
2022/08/15 11:15:00;;;;;;;6.55;3.47;;;;;;;;;;4964600;28;20135;-58
2022/08/15 11:17:29;;;;;;;14.40;5.40;;;;;;;;;;5002838;28;20138;-59
2022/08/15 11:20:02;;;;;;;10.80;4.55;;;;;;;;;;5005101;28;20050;-59
2022/08/15 11:22:31;;;;;;;5.55;3.30;;;;;;;;;;4989637;28;20061;-60
2022/08/15 11:25:00;;;;;;;10.30;4.97;;;;;;;;;;4974732;28;20070;-60
2022/08/15 11:27:27;;;;;;;9.15;4.43;;;;;;;;;;4970418;28;20141;-60
2022/08/15 11:29:55;;;;;;;9.77;4.13;;;;;;;;;;4964107;28;20040;-62
2022/08/15 11:32:27;;;;;;;16.08;6.13;;;;;;;;;;4969833;28;20053;-59
2022/08/15 11:34:54;;;;;;;10.80;5.55;;;;;;;;;;4963739;28;20057;-62
2022/08/15 11:37:24;;;;;;;10.68;4.97;;;;;;;;;;4969330;28;20062;-62
2022/08/15 11:39:52;;;;;;;11.07;6.25;;;;;;;;;;4963663;28;20062;-61
2022/08/15 11:42:20;;;;;;;9.40;4.80;;;;;;;;;;4968950;28;20058;-60
2022/08/15 11:44:52;;;;;;;8.93;4.25;;;;;;;;;;4968264;28;20066;-58
2022/08/15 11:47:18;;;;;;;14.15;5.95;;;;;;;;;;4986327;28;20054;-62
2022/08/15 11:49:48;;;;;;;10.32;5.07;;;;;;;;;;4988476;28;20101;-61
2022/08/15 11:52:22;;;;;;;9.23;3.67;;;;;;;;;;4964756;28;20070;-61
2022/08/15 11:55:04;;;;;;;9.77;3.78;;;;;;;;;;4969047;28;20051;-62
2022/08/15 11:57:39;;;;;;;5.47;2.70;;;;;;;;;;4961483;28;20054;-62
2022/08/15 12:00:23;;;;;;;4.22;2.30;;;;;;;;;;4969372;28;20055;-62
2022/08/15 12:02:51;;;;;;;10.05;4.65;;;;;;;;;;4982204;28;20043;-58
2022/08/15 12:05:26;;;;;;;8.43;3.28;;;;;;;;;;4969093;28;20051;-60
2022/08/15 12:07:56;;;;;;;15.18;5.40;;;;;;;;;;4963232;28;20065;-59
2022/08/15 12:10:26;;;;;;;9.70;5.10;;;;;;;;;;4967774;28;20066;-59
2022/08/15 12:12:54;;;;;;;11.80;5.35;;;;;;;;;;4962819;28;20054;-59
2022/08/15 12:15:20;;;;;;;;;;;;;;;;;;4967812;28;20047;-57
2022/08/15 12:18:12;;;;;;;7.43;3.28;;;;;;;;;;4963689;28;19926;-59
2022/08/15 12:20:41;;;;;;;13.05;5.95;;;;;;;;;;4945785;28;20153;-58
2022/08/15 12:23:25;;;;;;;12.93;6.35;;;;;;;;;;4963300;28;20055;-58
2022/08/15 12:25:52;;;;;;;13.30;5.25;;;;;;;;;;4968883;28;20061;-59
2022/08/15 12:28:20;;;;;;;10.32;4.20;;;;;;;;;;4962728;28;20062;-60
2022/08/15 12:30:47;;;;;;;12.15;5.93;;;;;;;;;;4968071;28;20046;-57
2022/08/15 12:33:14;;;;;;;8.40;4.70;;;;;;;;;;4963622;28;20110;-61
2022/08/15 12:35:41;;;;;;;6.88;3.17;;;;;;;;;;4969833;28;20114;-60
2022/08/15 12:38:08;;;;;;;7.78;3.40;;;;;;;;;;4962394;28;20059;-62
2022/08/15 12:40:34;;;;;;;13.55;6.00;;;;;;;;;;4968598;28;20055;-61
2022/08/15 12:43:01;;;;;;;11.07;5.13;;;;;;;;;;4963326;28;20059;-60
2022/08/15 12:45:29;;;;;;;10.45;4.80;;;;;;;;;;4968267;28;20118;-59
2022/08/15 12:47:56;;;;;;;8.77;4.88;;;;;;;;;;4961142;28;20054;-58
2022/08/15 12:50:22;;;;;;;8.52;4.72;;;;;;;;;;4967986;28;20141;-62
2022/08/15 12:52:49;;;;;;;7.57;3.97;;;;;;;;;;4964914;28;20042;-63
2022/08/15 12:55:15;;;;;;;7.78;4.22;;;;;;;;;;4986379;28;20054;-61
2022/08/15 12:57:42;;;;;;;7.47;3.67;;;;;;;;;;4982553;28;20086;-60
2022/08/15 13:00:10;;;;;;;9.75;4.35;;;;;;;;;;4968343;28;20063;-62
2022/08/15 13:02:40;;;;;;;9.30;3.97;;;;;;;;;;4983712;28;20065;-62
2022/08/15 13:05:08;;;;;;;11.00;4.63;;;;;;;;;;4980048;28;20062;-60
2022/08/15 13:07:36;;;;;;;7.22;3.42;;;;;;;;;;4986742;28;20058;-60
2022/08/15 13:10:02;;;;;;;11.77;3.77;;;;;;;;;;4965841;28;20268;-64
2022/08/15 13:12:29;;;;;;;10.48;3.70;;;;;;;;;;4983838;28;20138;-61
2022/08/15 13:14:56;;;;;;;9.38;3.53;;;;;;;;;;4962030;28;20055;-62
2022/08/15 13:17:22;;;;;;;6.18;3.33;;;;;;;;;;4966950;28;20105;-61
2022/08/15 13:25:19;;;;;;;10.32;3.88;;;;;;;;;;4974757;28;20053;-59
2022/08/15 13:27:48;;;;;;;9.73;3.55;;;;;;;;;;4986993;28;20054;-59
2022/08/15 13:30:15;;;;;;;8.35;3.30;;;;;;;;;;4970346;28;20054;-59
2022/08/15 13:32:42;;;;;;;11.15;3.03;;;;;;;;;;4968688;28;20080;-60
2022/08/15 13:35:15;;;;;;;9.63;3.13;;;;;;;;;;4962308;28;20142;-56
2022/08/15 13:37:43;;;;;;;7.45;3.00;;;;;;;;;;4967772;28;20051;-61
2022/08/15 13:40:10;;;;;;;9.25;3.15;;;;;;;;;;4961575;28;20145;-61
2022/08/15 13:42:37;;;;;;;6.82;3.33;;;;;;;;;;4983315;28;20054;-60
2022/08/15 13:45:04;;;;;;;5.43;2.83;;;;;;;;;;4963905;28;20113;-61
2022/08/15 13:47:31;;;;;;;9.20;3.40;;;;;;;;;;4983605;28;20063;-60
2022/08/15 13:49:58;;;;;;;7.00;2.60;;;;;;;;;;4960791;28;20059;-60
2022/08/15 13:52:26;;;;;;;6.72;3.15;;;;;;;;;;4967630;28;20049;-62
2022/08/15 13:54:53;;;;;;;8.60;3.08;;;;;;;;;;4964402;28;20161;-62
2022/08/15 13:57:20;;;;;;;14.10;4.18;;;;;;;;;;4965442;28;20082;-63
2022/08/15 13:59:46;;;;;;;7.13;2.92;;;;;;;;;;4963953;28;20042;-63
2022/08/15 14:02:25;;;;;;;7.40;3.00;;;;;;;;;;4980982;28;20185;-64
2022/08/15 14:04:51;;;;;;;12.20;3.55;;;;;;;;;;4968048;28;20066;-63
2022/08/15 14:07:21;;;;;;;4.20;2.60;;;;;;;;;;4965991;28;20059;-63
2022/08/15 14:09:50;;;;;;;6.60;2.67;;;;;;;;;;4966738;28;20078;-60
2022/08/15 14:12:16;;;;;;;7.18;2.90;;;;;;;;;;4965071;28;20061;-64
2022/08/15 14:14:43;;;;;;;6.45;2.97;;;;;;;;;;4971919;28;20058;-59
2022/08/15 14:17:11;;;;;;;4.60;2.60;;;;;;;;;;4964911;28;20121;-60
2022/08/15 14:19:38;;;;;;;8.57;3.70;;;;;;;;;;5004255;28;20058;-63
2022/08/15 14:22:06;;;;;;;5.32;2.85;;;;;;;;;;4998405;28;20113;-64
2022/08/15 14:24:32;;;;;;;6.38;2.90;;;;;;;;;;4970021;28;20055;-63
2022/08/15 14:27:01;;;;;;;7.03;3.13;;;;;;;;;;4956583;28;20151;-62
2022/08/15 14:29:29;;;;;;;6.55;2.90;;;;;;;;;;4963847;28;20058;-61
2022/08/15 14:32:00;;;;;;;11.15;3.30;;;;;;;;;;4971692;28;20071;-60
2022/08/15 14:34:27;;;;;;;8.10;3.20;;;;;;;;;;4965962;28;20082;-59
2022/08/15 14:36:55;;;;;;;11.50;3.30;;;;;;;;;;4971648;28;20051;-61
2022/08/15 14:39:22;;;;;;;11.23;3.33;;;;;;;;;;4965280;28;20055;-61
2022/08/15 14:41:51;;;;;;;4.88;2.42;;;;;;;;;;5003865;28;20059;-62
2022/08/15 14:44:20;;;;;;;5.95;2.88;;;;;;;;;;5000442;28;20061;-62
2022/08/15 14:46:47;;;;;;;12.90;3.47;;;;;;;;;;4967797;28;20057;-63
2022/08/15 14:49:14;;;;;;;5.37;2.80;;;;;;;;;;4971635;28;20054;-63
2022/08/15 14:51:42;;;;;;;5.75;2.60;;;;;;;;;;4964877;28;20360;-62
2022/08/15 14:54:08;;;;;;;;;;;;;;;;;;5002858;28;20046;-63
2022/08/15 14:56:36;;;;;;;7.90;2.53;;;;;;;;;;4964292;28;19964;-62
2022/08/15 14:59:05;;;;;;;7.57;3.38;;;;;;;;;;4969829;28;20105;-61
2022/08/15 15:01:33;;;;;;;5.97;3.25;;;;;;;;;;4964578;28;20150;-59
2022/08/15 15:04:01;;;;;;;4.88;2.47;;;;;;;;;;4998153;28;20050;-57
2022/08/15 15:06:28;;;;;;;7.20;3.20;;;;;;;;;;4969945;28;20069;-62
2022/08/15 15:08:55;;;;;;;8.33;3.33;;;;;;;;;;4979436;28;20131;-59
2022/08/15 15:11:22;;;;;;;6.63;2.83;;;;;;;;;;4970015;28;20377;-60